createdAt,value
2023-02-26T00:00:10.534Z,6.70
2023-02-26T00:03:13.565Z,7.30
2023-02-26T00:06:01.608Z,7.50
2023-02-26T00:08:44.663Z,5.40
2023-02-26T00:11:28.137Z,3.70
2023-02-26T00:14:14.838Z,4.60
2023-02-26T00:17:31.983Z,5.30
2023-02-26T00:20:17.010Z,6.00
2023-02-26T00:23:00.433Z,6.20
2023-02-26T00:25:43.424Z,5.50
2023-02-26T00:28:26.833Z,4.00
2023-02-26T00:31:10.717Z,4.50
2023-02-26T00:33:55.844Z,8.10
2023-02-26T00:37:00.360Z,5.50
2023-02-26T00:39:46.262Z,6.50
2023-02-26T00:42:29.509Z,2.70
2023-02-26T00:45:14.833Z,3.90
2023-02-26T00:48:13.007Z,6.70
2023-02-26T00:51:24.217Z,6.40
2023-02-26T00:54:13.352Z,3.60
2023-02-26T00:56:58.310Z,5.70
2023-02-26T00:59:41.219Z,4.10
2023-02-26T01:02:24.459Z,4.90
2023-02-26T01:05:08.791Z,3.80
2023-02-26T01:08:19.821Z,2.80
2023-02-26T01:11:03.349Z,7.10
2023-02-26T01:13:46.855Z,2.90
2023-02-26T01:16:35.822Z,2.70
2023-02-26T01:19:36.747Z,10.10
2023-02-26T01:22:25.603Z,3.10
2023-02-26T01:25:13.480Z,5.10
2023-02-26T01:27:57.784Z,6.30
2023-02-26T01:30:41.456Z,4.70
2023-02-26T01:33:35.279Z,4.00
2023-02-26T01:36:23.383Z,5.90
2023-02-26T01:39:36.546Z,3.30
2023-02-26T01:42:27.920Z,3.40
2023-02-26T01:45:20.181Z,2.90
2023-02-26T01:48:10.939Z,3.30
2023-02-26T01:50:54.057Z,2.40
2023-02-26T01:53:37.040Z,5.10
2023-02-26T01:56:21.013Z,3.60
2023-02-26T01:59:06.284Z,5.50
2023-02-26T02:02:39.151Z,3.00
2023-02-26T02:06:45.059Z,4.10
2023-02-26T02:10:24.026Z,2.90
2023-02-26T02:14:30.835Z,1.90
2023-02-26T02:18:39.327Z,3.20
2023-02-26T02:22:46.199Z,5.20
2023-02-26T02:26:48.093Z,3.20
2023-02-26T02:31:07.307Z,1.60
2023-02-26T02:35:14.506Z,1.80
2023-02-26T02:39:18.620Z,2.10
2023-02-26T02:43:36.581Z,1.70
2023-02-26T02:47:40.523Z,4.30
2023-02-26T02:51:33.071Z,2.40
2023-02-26T02:55:33.934Z,2.50
2023-02-26T02:59:26.859Z,2.70
2023-02-26T03:03:41.286Z,8.90
2023-02-26T03:07:45.280Z,4.70
2023-02-26T03:11:49.294Z,6.60
2023-02-26T03:15:53.400Z,2.90
2023-02-26T03:20:00.447Z,5.00
2023-02-26T03:24:12.914Z,4.00
2023-02-26T03:28:09.165Z,7.90
2023-02-26T03:32:12.389Z,2.60
2023-02-26T03:36:16.367Z,5.00
2023-02-26T03:40:06.335Z,3.00
2023-02-26T03:44:37.553Z,4.80
2023-02-26T03:48:41.421Z,6.90
2023-02-26T03:52:43.867Z,5.90
2023-02-26T03:56:50.631Z,3.90
2023-02-26T04:01:13.186Z,2.60
2023-02-26T04:05:08.668Z,1.80
2023-02-26T04:09:13.734Z,4.00
2023-02-26T04:13:12.131Z,4.60
2023-02-26T04:16:48.820Z,5.70
2023-02-26T04:20:45.414Z,2.00
2023-02-26T04:24:49.413Z,5.80
2023-02-26T04:28:44.676Z,5.20
2023-02-26T04:32:30.980Z,4.30
2023-02-26T04:35:56.266Z,3.40
2023-02-26T04:39:53.002Z,3.30
2023-02-26T04:43:47.203Z,6.40
2023-02-26T04:47:29.887Z,4.90
2023-02-26T04:51:33.958Z,5.00
2023-02-26T04:55:30.777Z,7.10
2023-02-26T04:59:34.755Z,3.20
2023-02-26T05:03:38.800Z,5.10
2023-02-26T05:07:42.842Z,5.90
2023-02-26T05:11:35.582Z,6.40
2023-02-26T05:15:33.931Z,3.80
2023-02-26T05:19:37.972Z,4.60
2023-02-26T05:23:30.950Z,8.40
2023-02-26T05:27:13.822Z,4.30
2023-02-26T05:30:40.645Z,3.50
2023-02-26T05:33:53.658Z,4.70
2023-02-26T05:37:57.654Z,3.90
2023-02-26T05:41:51.360Z,4.40
2023-02-26T05:45:55.622Z,4.20
2023-02-26T05:50:00.296Z,5.20
2023-02-26T05:54:04.265Z,6.10
2023-02-26T05:58:00.760Z,4.90
2023-02-26T06:02:05.526Z,5.30
2023-02-26T06:05:41.591Z,3.10
2023-02-26T06:13:09.982Z,6.60
2023-02-26T06:17:13.972Z,4.00
2023-02-26T06:21:19.154Z,3.80
2023-02-26T06:24:56.486Z,6.60
2023-02-26T06:28:42.592Z,4.70
2023-02-26T06:32:36.481Z,7.40
2023-02-26T06:36:40.603Z,4.80
2023-02-26T06:40:07.177Z,2.30
2023-02-26T06:44:11.100Z,3.70
2023-02-26T06:48:14.998Z,8.00
2023-02-26T06:52:19.977Z,11.50
2023-02-26T06:56:24.381Z,5.60
2023-02-26T07:04:06.208Z,3.90
2023-02-26T07:07:59.061Z,8.90
2023-02-26T07:12:02.941Z,3.40
2023-02-26T07:16:07.124Z,4.30
2023-02-26T07:20:11.200Z,7.60
2023-02-26T07:23:58.307Z,2.40
2023-02-26T07:27:53.665Z,4.70
2023-02-26T07:31:57.767Z,6.30
2023-02-26T07:36:01.835Z,3.00
2023-02-26T07:40:05.889Z,4.40
2023-02-26T07:43:43.169Z,8.80
2023-02-26T07:47:32.807Z,4.80
2023-02-26T07:51:32.653Z,6.00
2023-02-26T07:55:16.597Z,6.80
2023-02-26T07:59:20.700Z,12.10
2023-02-26T08:03:03.450Z,7.60
2023-02-26T08:07:07.549Z,5.80
2023-02-26T08:11:02.133Z,5.90
2023-02-26T08:14:56.052Z,4.80
2023-02-26T08:19:00.136Z,4.40
2023-02-26T08:22:49.620Z,8.30
2023-02-26T08:26:42.478Z,6.30
2023-02-26T08:30:39.083Z,6.70
2023-02-26T08:34:43.033Z,10.10
2023-02-26T08:38:17.245Z,6.60
2023-02-26T08:42:21.193Z,8.60
2023-02-26T08:46:18.196Z,8.30
2023-02-26T08:49:47.847Z,9.20
2023-02-26T08:53:32.807Z,6.60
2023-02-26T08:57:35.426Z,4.70
2023-02-26T09:01:38.167Z,7.80
2023-02-26T09:05:35.041Z,7.80
2023-02-26T09:09:29.083Z,12.70
2023-02-26T09:13:09.279Z,13.60
2023-02-26T09:17:13.182Z,12.60
2023-02-26T09:20:58.369Z,17.50
2023-02-26T09:24:51.196Z,6.60
2023-02-26T09:28:47.718Z,11.60
2023-02-26T09:32:22.607Z,7.50
2023-02-26T09:36:25.847Z,7.70
2023-02-26T09:43:52.856Z,9.10
2023-02-26T09:47:40.970Z,12.10
2023-02-26T09:51:50.077Z,8.40
2023-02-26T09:55:36.297Z,7.50
2023-02-26T09:59:29.325Z,6.30
2023-02-26T10:03:38.756Z,9.70
2023-02-26T10:07:51.894Z,11.80
2023-02-26T10:12:01.706Z,9.50
2023-02-26T10:16:12.706Z,9.30
2023-02-26T10:20:19.859Z,9.30
2023-02-26T10:24:02.906Z,8.00
2023-02-26T10:27:43.322Z,9.60
2023-02-26T10:31:50.055Z,11.30
2023-02-26T10:35:59.751Z,5.70
2023-02-26T10:40:07.012Z,4.20
2023-02-26T10:44:23.331Z,9.80
2023-02-26T10:48:20.153Z,7.20
2023-02-26T10:52:04.096Z,4.80
2023-02-26T10:55:53.968Z,6.90
2023-02-26T10:59:47.837Z,4.00
2023-02-26T11:03:45.620Z,7.50
2023-02-26T11:07:54.774Z,8.90
2023-02-26T11:22:36.138Z,7.30
2023-02-26T11:27:23.753Z,3.10
2023-02-26T11:31:00.304Z,6.00
2023-02-26T11:34:32.478Z,4.90
2023-02-26T11:38:29.930Z,4.00
2023-02-26T11:41:50.705Z,7.70
2023-02-26T11:45:39.257Z,4.20
2023-02-26T11:49:09.564Z,2.80
2023-02-26T11:53:22.805Z,4.60
2023-02-26T11:59:10.206Z,3.30
2023-02-26T12:02:14.711Z,5.60
2023-02-26T12:06:12.550Z,2.70
2023-02-26T12:09:15.660Z,3.50
2023-02-26T12:12:27.895Z,10.90
2023-02-26T12:15:26.977Z,12.60
2023-02-26T12:18:58.398Z,8.60
2023-02-26T12:22:13.068Z,7.50
2023-02-26T12:25:50.524Z,7.70
2023-02-26T12:29:05.932Z,6.90
2023-02-26T12:32:15.243Z,5.10
2023-02-26T12:35:35.608Z,4.90
2023-02-26T12:38:52.311Z,6.70
2023-02-26T12:42:21.235Z,9.00
2023-02-26T12:45:37.861Z,9.40
2023-02-26T12:48:46.797Z,9.80
2023-02-26T12:52:22.788Z,11.30
2023-02-26T12:55:26.352Z,10.40
2023-02-26T12:58:31.963Z,13.40
2023-02-26T13:01:36.251Z,12.10
2023-02-26T13:05:15.182Z,15.20
2023-02-26T13:08:30.046Z,10.90
2023-02-26T13:11:33.788Z,8.70
2023-02-26T13:15:00.885Z,8.20
2023-02-26T13:17:58.936Z,4.40
2023-02-26T13:21:11.967Z,6.00
2023-02-26T13:24:22.512Z,5.00
2023-02-26T13:27:18.443Z,4.90
2023-02-26T13:30:41.468Z,5.20
2023-02-26T13:33:30.371Z,8.90
2023-02-26T13:36:16.859Z,6.50
2023-02-26T13:39:37.413Z,5.10
2023-02-26T13:42:57.560Z,3.40
2023-02-26T13:46:04.128Z,9.30
2023-02-26T13:49:31.503Z,5.20
2023-02-26T13:52:56.137Z,7.60
2023-02-26T13:55:52.020Z,4.20
2023-02-26T13:59:04.687Z,5.90
2023-02-26T14:02:14.740Z,3.90
2023-02-26T14:05:02.894Z,9.40
2023-02-26T14:08:21.512Z,7.80
2023-02-26T14:12:17.587Z,7.70
2023-02-26T14:15:30.047Z,6.90
2023-02-26T14:18:57.040Z,4.60
2023-02-26T14:22:09.392Z,8.20
2023-02-26T14:29:17.654Z,6.40
2023-02-26T14:32:15.243Z,8.90
2023-02-26T14:35:22.562Z,4.10
2023-02-26T14:39:06.258Z,6.30
2023-02-26T14:42:19.478Z,14.00
2023-02-26T14:45:38.847Z,8.90
2023-02-26T14:49:13.102Z,8.10
2023-02-26T14:52:28.334Z,12.70
2023-02-26T14:55:20.492Z,5.40
2023-02-26T14:59:03.233Z,8.20
2023-02-26T15:02:54.685Z,8.20
2023-02-26T15:06:25.337Z,3.90
2023-02-26T15:10:42.784Z,7.10
2023-02-26T15:14:32.647Z,7.30
2023-02-26T15:17:52.007Z,6.20
2023-02-26T15:21:32.371Z,3.10
2023-02-26T15:24:48.299Z,5.00
2023-02-26T15:28:15.083Z,6.30
2023-02-26T15:31:37.239Z,2.10
2023-02-26T15:34:52.771Z,4.20
2023-02-26T15:38:01.367Z,10.00
2023-02-26T15:41:35.146Z,7.40
2023-02-26T15:48:55.191Z,9.40
2023-02-26T15:52:40.411Z,6.60
2023-02-26T15:56:10.639Z,9.70
2023-02-26T15:59:25.551Z,11.30
2023-02-26T16:03:29.625Z,14.30
2023-02-26T16:07:16.259Z,15.50
2023-02-26T16:10:53.540Z,18.70
2023-02-26T16:14:10.936Z,13.20
2023-02-26T16:18:14.965Z,11.00
2023-02-26T16:21:47.510Z,12.40
2023-02-26T16:24:56.377Z,11.10
2023-02-26T16:28:08.330Z,7.40
2023-02-26T16:31:38.672Z,13.30
2023-02-26T16:35:14.248Z,13.50
2023-02-26T16:38:40.542Z,7.20
2023-02-26T16:42:50.682Z,11.20
2023-02-26T16:46:25.959Z,11.40
2023-02-26T16:50:00.012Z,16.10
2023-02-26T16:53:40.380Z,15.30
2023-02-26T16:57:25.205Z,13.00
2023-02-26T17:01:20.170Z,14.60
2023-02-26T17:04:24.845Z,11.10
2023-02-26T17:08:14.450Z,11.50
2023-02-26T17:11:07.760Z,14.90
2023-02-26T17:17:51.428Z,13.30
2023-02-26T17:20:44.998Z,10.60
2023-02-26T17:24:19.793Z,16.60
2023-02-26T17:31:47.300Z,8.20
2023-02-26T17:38:13.292Z,9.40
2023-02-26T17:41:27.147Z,12.10
2023-02-26T17:45:03.261Z,9.60
2023-02-26T17:49:07.125Z,17.30
2023-02-26T17:52:27.406Z,13.20
2023-02-26T17:55:58.963Z,19.40
2023-02-26T17:59:51.485Z,17.40
2023-02-26T18:03:06.398Z,15.70
2023-02-26T18:06:35.093Z,19.30
2023-02-26T18:10:11.439Z,24.20
2023-02-26T18:13:55.524Z,15.70
2023-02-26T18:17:07.262Z,14.00
2023-02-26T18:20:53.808Z,12.30
2023-02-26T18:24:37.579Z,19.70
2023-02-26T18:27:44.714Z,18.60
2023-02-26T18:31:02.338Z,17.80
2023-02-26T18:33:54.241Z,19.30
2023-02-26T18:37:11.631Z,16.20
2023-02-26T18:40:22.098Z,15.30
2023-02-26T18:43:10.494Z,17.00
2023-02-26T18:46:38.517Z,12.00
2023-02-26T18:49:44.890Z,16.00
2023-02-26T18:52:50.531Z,17.00
2023-02-26T18:55:44.477Z,16.90
2023-02-26T18:59:08.179Z,14.10
2023-02-26T19:02:15.530Z,19.40
2023-02-26T19:05:58.689Z,23.40
2023-02-26T19:09:02.993Z,17.60
2023-02-26T19:12:20.325Z,17.00
2023-02-26T19:15:15.302Z,14.40
2023-02-26T19:18:47.545Z,17.80
2023-02-26T19:22:21.174Z,20.00
2023-02-26T19:28:16.705Z,14.50
2023-02-26T19:31:38.283Z,11.00
2023-02-26T19:35:21.382Z,10.60
2023-02-26T19:38:42.448Z,16.00
2023-02-26T19:42:09.491Z,22.60
2023-02-26T19:47:52.401Z,32.40
2023-02-26T19:50:38.919Z,37.50
2023-02-26T19:54:00.503Z,36.50
2023-02-26T19:57:24.417Z,15.90
2023-02-26T20:00:37.454Z,12.60
2023-02-26T20:03:27.226Z,20.70
2023-02-26T20:06:36.363Z,20.00
2023-02-26T20:10:31.648Z,19.20
2023-02-26T20:13:35.500Z,11.40
2023-02-26T20:16:41.746Z,16.30
2023-02-26T20:19:50.341Z,10.30
2023-02-26T20:23:44.278Z,11.30
2023-02-26T20:26:49.068Z,19.10
2023-02-26T20:29:43.464Z,18.80
2023-02-26T20:32:41.484Z,15.90
2023-02-26T20:36:07.861Z,13.10
2023-02-26T20:39:34.607Z,21.60
2023-02-26T20:42:20.992Z,24.10
2023-02-26T20:45:10.486Z,18.50
2023-02-26T20:48:54.203Z,12.60
2023-02-26T20:51:57.447Z,15.40
2023-02-26T20:55:21.465Z,10.70
2023-02-26T20:58:22.673Z,6.90
2023-02-26T21:01:36.502Z,9.90
2023-02-26T21:04:40.327Z,10.50
2023-02-26T21:07:58.852Z,13.00
2023-02-26T21:11:28.153Z,8.00
2023-02-26T21:14:40.999Z,9.70
2023-02-26T21:17:27.399Z,8.70
2023-02-26T21:20:18.292Z,10.90
2023-02-26T21:23:10.362Z,10.50
2023-02-26T21:25:56.728Z,16.30
2023-02-26T21:29:00.994Z,10.80
2023-02-26T21:32:16.270Z,11.20
2023-02-26T21:35:32.765Z,10.60
2023-02-26T21:38:36.158Z,8.80
2023-02-26T21:41:39.690Z,9.20
2023-02-26T21:44:31.703Z,12.60
2023-02-26T21:47:55.301Z,11.60
2023-02-26T21:51:01.759Z,9.90
2023-02-26T21:54:25.448Z,18.40
2023-02-26T21:57:17.864Z,13.40
2023-02-26T22:00:39.997Z,13.90
2023-02-26T22:03:25.458Z,13.00
2023-02-26T22:06:47.670Z,14.60
2023-02-26T22:10:24.090Z,14.30
2023-02-26T22:13:57.897Z,12.70
2023-02-26T22:21:18.395Z,9.50
2023-02-26T22:25:03.281Z,11.20
2023-02-26T22:28:57.284Z,9.00
2023-02-26T22:32:46.911Z,15.70
2023-02-26T22:36:30.760Z,8.20
2023-02-26T22:40:14.732Z,11.10
2023-02-26T22:44:18.802Z,10.90
2023-02-26T22:47:56.067Z,10.90
2023-02-26T22:51:14.879Z,11.70
2023-02-26T22:55:08.825Z,8.80
2023-02-26T23:02:06.292Z,10.40
2023-02-26T23:05:32.865Z,11.50
2023-02-26T23:09:01.587Z,13.00
2023-02-26T23:12:59.536Z,10.40
2023-02-26T23:17:03.753Z,8.30
2023-02-26T23:20:49.826Z,9.40
2023-02-26T23:24:53.868Z,12.70
2023-02-26T23:28:46.970Z,11.70
2023-02-26T23:32:43.831Z,11.70
2023-02-26T23:36:40.679Z,10.90
2023-02-26T23:40:43.549Z,9.80
2023-02-26T23:44:18.454Z,14.40
2023-02-26T23:48:10.835Z,12.60
2023-02-26T23:52:13.615Z,12.10
2023-02-26T23:55:41.963Z,8.90
2023-02-26T23:59:44.546Z,14.40
